sensor_id;sensor_type;location;lat;lon;timestamp;temperature;humidity
26336;DHT22;14047;50.936;4.654;2022-09-02T00:00:47;17.00;99.90
26336;DHT22;14047;50.936;4.654;2022-09-02T00:03:13;16.90;99.90
26336;DHT22;14047;50.936;4.654;2022-09-02T00:05:39;16.90;99.90
26336;DHT22;14047;50.936;4.654;2022-09-02T00:08:05;16.80;99.90
26336;DHT22;14047;50.936;4.654;2022-09-02T00:10:42;16.70;99.90
26336;DHT22;14047;50.936;4.654;2022-09-02T00:13:10;16.70;99.90
26336;DHT22;14047;50.936;4.654;2022-09-02T00:15:36;16.70;99.90
26336;DHT22;14047;50.936;4.654;2022-09-02T00:18:02;16.70;99.90
26336;DHT22;14047;50.936;4.654;2022-09-02T00:20:29;16.70;99.90
26336;DHT22;14047;50.936;4.654;2022-09-02T00:22:55;16.80;99.90
26336;DHT22;14047;50.936;4.654;2022-09-02T00:25:22;16.80;99.90
26336;DHT22;14047;50.936;4.654;2022-09-02T00:27:48;16.70;99.90
26336;DHT22;14047;50.936;4.654;2022-09-02T00:30:14;16.60;99.90
26336;DHT22;14047;50.936;4.654;2022-09-02T00:32:40;16.50;99.90
26336;DHT22;14047;50.936;4.654;2022-09-02T00:35:06;16.60;99.90
26336;DHT22;14047;50.936;4.654;2022-09-02T00:37:32;16.60;99.90
26336;DHT22;14047;50.936;4.654;2022-09-02T00:39:58;16.60;99.90
26336;DHT22;14047;50.936;4.654;2022-09-02T00:42:24;16.60;99.90
26336;DHT22;14047;50.936;4.654;2022-09-02T00:44:51;16.60;99.90
26336;DHT22;14047;50.936;4.654;2022-09-02T00:47:17;16.60;99.90
26336;DHT22;14047;50.936;4.654;2022-09-02T00:49:45;16.50;99.90
26336;DHT22;14047;50.936;4.654;2022-09-02T00:55:25;16.50;99.90
26336;DHT22;14047;50.936;4.654;2022-09-02T00:57:56;16.40;99.90
26336;DHT22;14047;50.936;4.654;2022-09-02T01:00:27;16.40;99.90
26336;DHT22;14047;50.936;4.654;2022-09-02T01:02:56;16.20;99.90
26336;DHT22;14047;50.936;4.654;2022-09-02T01:05:25;16.20;99.90
26336;DHT22;14047;50.936;4.654;2022-09-02T01:07:53;16.20;99.90
26336;DHT22;14047;50.936;4.654;2022-09-02T01:10:25;16.20;99.90
26336;DHT22;14047;50.936;4.654;2022-09-02T01:13:00;16.10;99.90
26336;DHT22;14047;50.936;4.654;2022-09-02T01:15:26;16.10;99.90
26336;DHT22;14047;50.936;4.654;2022-09-02T01:17:54;16.10;99.90
26336;DHT22;14047;50.936;4.654;2022-09-02T01:20:23;16.00;99.90
26336;DHT22;14047;50.936;4.654;2022-09-02T01:22:51;16.00;99.90
26336;DHT22;14047;50.936;4.654;2022-09-02T01:25:22;16.00;99.90
26336;DHT22;14047;50.936;4.654;2022-09-02T01:27:49;15.90;99.90
26336;DHT22;14047;50.936;4.654;2022-09-02T01:30:21;16.00;99.90
26336;DHT22;14047;50.936;4.654;2022-09-02T01:32:48;16.00;99.90
26336;DHT22;14047;50.936;4.654;2022-09-02T01:35:14;16.00;99.90
26336;DHT22;14047;50.936;4.654;2022-09-02T01:37:40;16.00;99.90
26336;DHT22;14047;50.936;4.654;2022-09-02T01:40:11;16.10;99.90
26336;DHT22;14047;50.936;4.654;2022-09-02T01:42:38;16.10;99.90
26336;DHT22;14047;50.936;4.654;2022-09-02T01:45:05;16.20;99.90
26336;DHT22;14047;50.936;4.654;2022-09-02T01:47:31;16.10;99.90
26336;DHT22;14047;50.936;4.654;2022-09-02T01:49:57;16.10;99.90
26336;DHT22;14047;50.936;4.654;2022-09-02T01:52:27;16.10;99.90
26336;DHT22;14047;50.936;4.654;2022-09-02T01:54:53;16.10;99.90
26336;DHT22;14047;50.936;4.654;2022-09-02T01:57:19;16.10;99.90
26336;DHT22;14047;50.936;4.654;2022-09-02T01:59:47;16.10;99.90
26336;DHT22;14047;50.936;4.654;2022-09-02T02:02:16;16.10;99.90
26336;DHT22;14047;50.936;4.654;2022-09-02T02:04:45;16.10;99.90
26336;DHT22;14047;50.936;4.654;2022-09-02T02:07:16;16.10;99.90
26336;DHT22;14047;50.936;4.654;2022-09-02T02:09:43;16.10;99.90
26336;DHT22;14047;50.936;4.654;2022-09-02T02:12:09;16.10;99.90
26336;DHT22;14047;50.936;4.654;2022-09-02T02:14:35;16.10;99.90
26336;DHT22;14047;50.936;4.654;2022-09-02T02:17:01;16.10;99.90
26336;DHT22;14047;50.936;4.654;2022-09-02T02:19:27;16.10;99.90
26336;DHT22;14047;50.936;4.654;2022-09-02T02:21:53;16.00;99.90
26336;DHT22;14047;50.936;4.654;2022-09-02T02:24:19;16.00;99.90
26336;DHT22;14047;50.936;4.654;2022-09-02T02:26:45;15.90;99.90
26336;DHT22;14047;50.936;4.654;2022-09-02T02:29:12;15.90;99.90
26336;DHT22;14047;50.936;4.654;2022-09-02T02:31:38;15.90;99.90
26336;DHT22;14047;50.936;4.654;2022-09-02T02:34:04;15.90;99.90
26336;DHT22;14047;50.936;4.654;2022-09-02T02:36:30;15.90;99.90
26336;DHT22;14047;50.936;4.654;2022-09-02T02:38:56;15.90;99.90
26336;DHT22;14047;50.936;4.654;2022-09-02T02:41:21;15.90;99.90
26336;DHT22;14047;50.936;4.654;2022-09-02T02:43:47;15.80;99.90
26336;DHT22;14047;50.936;4.654;2022-09-02T02:46:14;15.80;99.90
26336;DHT22;14047;50.936;4.654;2022-09-02T02:48:41;15.80;99.90
26336;DHT22;14047;50.936;4.654;2022-09-02T02:51:07;15.80;99.90
26336;DHT22;14047;50.936;4.654;2022-09-02T02:53:34;15.80;99.90
26336;DHT22;14047;50.936;4.654;2022-09-02T02:56:01;15.80;99.90
26336;DHT22;14047;50.936;4.654;2022-09-02T02:58:27;15.70;99.90
26336;DHT22;14047;50.936;4.654;2022-09-02T03:00:55;15.70;99.90
26336;DHT22;14047;50.936;4.654;2022-09-02T03:03:21;15.80;99.90
26336;DHT22;14047;50.936;4.654;2022-09-02T03:05:47;15.80;99.90
26336;DHT22;14047;50.936;4.654;2022-09-02T03:08:14;15.80;99.90
26336;DHT22;14047;50.936;4.654;2022-09-02T03:10:41;15.80;99.90
26336;DHT22;14047;50.936;4.654;2022-09-02T03:13:09;15.80;99.90
26336;DHT22;14047;50.936;4.654;2022-09-02T03:15:37;15.70;99.90
26336;DHT22;14047;50.936;4.654;2022-09-02T03:18:04;15.60;99.90
26336;DHT22;14047;50.936;4.654;2022-09-02T03:20:30;15.50;99.90
26336;DHT22;14047;50.936;4.654;2022-09-02T03:22:57;15.40;99.90
26336;DHT22;14047;50.936;4.654;2022-09-02T03:25:25;15.40;99.90
26336;DHT22;14047;50.936;4.654;2022-09-02T03:27:51;15.40;99.90
26336;DHT22;14047;50.936;4.654;2022-09-02T03:30:24;15.20;99.90
26336;DHT22;14047;50.936;4.654;2022-09-02T03:32:51;15.10;99.90
26336;DHT22;14047;50.936;4.654;2022-09-02T03:35:18;15.10;99.90
26336;DHT22;14047;50.936;4.654;2022-09-02T03:37:45;15.10;99.90
26336;DHT22;14047;50.936;4.654;2022-09-02T03:40:14;15.10;99.90
26336;DHT22;14047;50.936;4.654;2022-09-02T03:42:40;15.10;99.90
26336;DHT22;14047;50.936;4.654;2022-09-02T03:45:07;15.10;99.90
26336;DHT22;14047;50.936;4.654;2022-09-02T03:47:33;15.10;99.90
26336;DHT22;14047;50.936;4.654;2022-09-02T03:49:59;15.10;99.90
26336;DHT22;14047;50.936;4.654;2022-09-02T03:52:25;15.10;99.90
26336;DHT22;14047;50.936;4.654;2022-09-02T03:54:51;15.20;99.90
26336;DHT22;14047;50.936;4.654;2022-09-02T03:57:17;15.20;99.90
26336;DHT22;14047;50.936;4.654;2022-09-02T03:59:45;15.20;99.90
26336;DHT22;14047;50.936;4.654;2022-09-02T04:02:11;15.30;99.90
26336;DHT22;14047;50.936;4.654;2022-09-02T04:04:36;15.40;99.90
26336;DHT22;14047;50.936;4.654;2022-09-02T04:07:02;15.40;99.90
26336;DHT22;14047;50.936;4.654;2022-09-02T04:09:28;15.60;99.90
26336;DHT22;14047;50.936;4.654;2022-09-02T04:11:53;15.60;99.90
26336;DHT22;14047;50.936;4.654;2022-09-02T04:14:20;15.70;99.90
26336;DHT22;14047;50.936;4.654;2022-09-02T04:16:45;15.80;99.90
26336;DHT22;14047;50.936;4.654;2022-09-02T04:19:11;15.80;99.90
26336;DHT22;14047;50.936;4.654;2022-09-02T04:21:39;15.70;99.90
26336;DHT22;14047;50.936;4.654;2022-09-02T04:24:06;15.60;99.90
26336;DHT22;14047;50.936;4.654;2022-09-02T04:26:34;15.70;99.90
26336;DHT22;14047;50.936;4.654;2022-09-02T04:29:00;15.80;99.90
26336;DHT22;14047;50.936;4.654;2022-09-02T04:31:26;15.90;99.90
26336;DHT22;14047;50.936;4.654;2022-09-02T04:33:54;15.90;99.90
26336;DHT22;14047;50.936;4.654;2022-09-02T04:36:21;16.00;99.90
26336;DHT22;14047;50.936;4.654;2022-09-02T04:38:47;16.10;99.90
26336;DHT22;14047;50.936;4.654;2022-09-02T04:41:15;16.10;99.90
26336;DHT22;14047;50.936;4.654;2022-09-02T04:43:42;15.60;99.90
26336;DHT22;14047;50.936;4.654;2022-09-02T04:46:10;15.70;99.90
26336;DHT22;14047;50.936;4.654;2022-09-02T04:48:36;15.80;99.90
26336;DHT22;14047;50.936;4.654;2022-09-02T04:51:04;15.90;99.90
26336;DHT22;14047;50.936;4.654;2022-09-02T04:53:31;16.00;99.90
26336;DHT22;14047;50.936;4.654;2022-09-02T04:55:57;16.10;99.90
26336;DHT22;14047;50.936;4.654;2022-09-02T04:58:22;16.20;99.90
26336;DHT22;14047;50.936;4.654;2022-09-02T05:00:48;16.20;99.90
26336;DHT22;14047;50.936;4.654;2022-09-02T05:03:14;16.30;99.90
26336;DHT22;14047;50.936;4.654;2022-09-02T05:05:39;16.30;99.90
26336;DHT22;14047;50.936;4.654;2022-09-02T05:08:05;16.40;99.90
26336;DHT22;14047;50.936;4.654;2022-09-02T05:10:31;16.40;99.90
26336;DHT22;14047;50.936;4.654;2022-09-02T05:12:58;16.50;99.90
26336;DHT22;14047;50.936;4.654;2022-09-02T05:15:24;16.40;99.90
26336;DHT22;14047;50.936;4.654;2022-09-02T05:17:49;16.30;99.90
26336;DHT22;14047;50.936;4.654;2022-09-02T05:20:15;16.30;99.90
26336;DHT22;14047;50.936;4.654;2022-09-02T05:22:41;16.40;99.90
26336;DHT22;14047;50.936;4.654;2022-09-02T05:25:08;16.50;99.90
26336;DHT22;14047;50.936;4.654;2022-09-02T05:27:35;16.60;99.90
26336;DHT22;14047;50.936;4.654;2022-09-02T05:30:01;16.70;99.90
26336;DHT22;14047;50.936;4.654;2022-09-02T05:32:26;16.70;99.90
26336;DHT22;14047;50.936;4.654;2022-09-02T05:34:53;16.80;99.90
26336;DHT22;14047;50.936;4.654;2022-09-02T05:37:20;16.80;99.90
26336;DHT22;14047;50.936;4.654;2022-09-02T05:39:46;16.80;99.90
26336;DHT22;14047;50.936;4.654;2022-09-02T05:42:12;16.90;99.90
26336;DHT22;14047;50.936;4.654;2022-09-02T05:44:37;16.90;99.90
26336;DHT22;14047;50.936;4.654;2022-09-02T05:47:04;16.90;99.90
26336;DHT22;14047;50.936;4.654;2022-09-02T05:49:30;16.90;99.90
26336;DHT22;14047;50.936;4.654;2022-09-02T05:51:58;16.90;99.90
26336;DHT22;14047;50.936;4.654;2022-09-02T05:54:30;16.90;99.90
26336;DHT22;14047;50.936;4.654;2022-09-02T05:56:59;16.90;99.90
26336;DHT22;14047;50.936;4.654;2022-09-02T05:59:27;17.00;99.90
26336;DHT22;14047;50.936;4.654;2022-09-02T06:01:53;17.00;99.90
26336;DHT22;14047;50.936;4.654;2022-09-02T06:04:20;17.10;99.90
26336;DHT22;14047;50.936;4.654;2022-09-02T06:06:47;17.20;99.90
26336;DHT22;14047;50.936;4.654;2022-09-02T06:09:14;17.20;99.90
26336;DHT22;14047;50.936;4.654;2022-09-02T06:11:41;17.30;99.90
26336;DHT22;14047;50.936;4.654;2022-09-02T06:14:11;17.40;99.90
26336;DHT22;14047;50.936;4.654;2022-09-02T06:16:39;17.40;99.90
26336;DHT22;14047;50.936;4.654;2022-09-02T06:19:05;17.40;99.90
26336;DHT22;14047;50.936;4.654;2022-09-02T06:21:32;17.50;99.90
26336;DHT22;14047;50.936;4.654;2022-09-02T06:23:58;17.50;99.90
26336;DHT22;14047;50.936;4.654;2022-09-02T06:26:24;17.60;99.90
26336;DHT22;14047;50.936;4.654;2022-09-02T06:28:50;17.70;99.90
26336;DHT22;14047;50.936;4.654;2022-09-02T06:31:18;17.80;99.90
26336;DHT22;14047;50.936;4.654;2022-09-02T06:33:45;17.90;99.90
26336;DHT22;14047;50.936;4.654;2022-09-02T06:36:15;18.00;99.90
26336;DHT22;14047;50.936;4.654;2022-09-02T06:38:43;18.10;99.90
26336;DHT22;14047;50.936;4.654;2022-09-02T06:41:11;18.20;99.90
26336;DHT22;14047;50.936;4.654;2022-09-02T06:43:37;18.30;99.90
26336;DHT22;14047;50.936;4.654;2022-09-02T06:46:03;18.40;99.90
26336;DHT22;14047;50.936;4.654;2022-09-02T06:48:29;18.50;99.90
26336;DHT22;14047;50.936;4.654;2022-09-02T06:50:55;18.50;99.90
26336;DHT22;14047;50.936;4.654;2022-09-02T06:53:21;18.60;99.90
26336;DHT22;14047;50.936;4.654;2022-09-02T06:55:47;18.80;99.90
26336;DHT22;14047;50.936;4.654;2022-09-02T06:58:13;19.00;99.90
26336;DHT22;14047;50.936;4.654;2022-09-02T07:00:40;18.90;99.90
26336;DHT22;14047;50.936;4.654;2022-09-02T07:03:06;19.00;99.90
26336;DHT22;14047;50.936;4.654;2022-09-02T07:06:08;19.10;99.90
26336;DHT22;14047;50.936;4.654;2022-09-02T07:08:44;19.20;99.90
26336;DHT22;14047;50.936;4.654;2022-09-02T07:11:19;19.40;99.90
26336;DHT22;14047;50.936;4.654;2022-09-02T07:13:45;19.60;99.90
26336;DHT22;14047;50.936;4.654;2022-09-02T07:16:11;19.70;99.90
26336;DHT22;14047;50.936;4.654;2022-09-02T07:18:36;19.90;99.90
26336;DHT22;14047;50.936;4.654;2022-09-02T07:21:02;20.10;99.90
26336;DHT22;14047;50.936;4.654;2022-09-02T07:23:28;20.30;99.90
26336;DHT22;14047;50.936;4.654;2022-09-02T07:25:54;20.40;99.90
26336;DHT22;14047;50.936;4.654;2022-09-02T07:28:22;20.50;99.90
26336;DHT22;14047;50.936;4.654;2022-09-02T07:30:48;20.60;99.90
26336;DHT22;14047;50.936;4.654;2022-09-02T07:33:14;20.70;99.90
26336;DHT22;14047;50.936;4.654;2022-09-02T07:35:43;20.90;99.90
26336;DHT22;14047;50.936;4.654;2022-09-02T07:38:10;21.00;99.90
26336;DHT22;14047;50.936;4.654;2022-09-02T07:40:38;21.20;99.90
26336;DHT22;14047;50.936;4.654;2022-09-02T07:43:06;21.20;99.90
26336;DHT22;14047;50.936;4.654;2022-09-02T07:45:32;21.40;99.90
26336;DHT22;14047;50.936;4.654;2022-09-02T07:47:58;21.40;99.90
26336;DHT22;14047;50.936;4.654;2022-09-02T07:50:24;21.40;99.90
26336;DHT22;14047;50.936;4.654;2022-09-02T07:52:56;21.50;99.90
26336;DHT22;14047;50.936;4.654;2022-09-02T07:55:23;21.70;99.90
26336;DHT22;14047;50.936;4.654;2022-09-02T07:57:50;21.80;99.90
26336;DHT22;14047;50.936;4.654;2022-09-02T08:00:17;22.00;99.90
26336;DHT22;14047;50.936;4.654;2022-09-02T08:02:44;22.10;99.90
26336;DHT22;14047;50.936;4.654;2022-09-02T08:05:10;22.20;99.90
26336;DHT22;14047;50.936;4.654;2022-09-02T08:07:36;22.30;99.90
26336;DHT22;14047;50.936;4.654;2022-09-02T08:10:02;22.30;99.90
26336;DHT22;14047;50.936;4.654;2022-09-02T08:12:28;22.40;99.90
26336;DHT22;14047;50.936;4.654;2022-09-02T08:14:54;22.40;99.90
26336;DHT22;14047;50.936;4.654;2022-09-02T08:17:23;22.30;99.90
26336;DHT22;14047;50.936;4.654;2022-09-02T08:19:48;22.60;99.90
26336;DHT22;14047;50.936;4.654;2022-09-02T08:22:14;22.70;99.90
26336;DHT22;14047;50.936;4.654;2022-09-02T08:24:39;22.90;99.90
26336;DHT22;14047;50.936;4.654;2022-09-02T08:27:05;23.30;99.90
26336;DHT22;14047;50.936;4.654;2022-09-02T08:29:31;23.50;99.90
26336;DHT22;14047;50.936;4.654;2022-09-02T08:31:56;23.80;99.90
26336;DHT22;14047;50.936;4.654;2022-09-02T08:34:22;24.00;99.90
26336;DHT22;14047;50.936;4.654;2022-09-02T08:36:48;24.20;99.90
26336;DHT22;14047;50.936;4.654;2022-09-02T08:39:13;24.20;99.90
26336;DHT22;14047;50.936;4.654;2022-09-02T08:41:52;24.30;99.90
26336;DHT22;14047;50.936;4.654;2022-09-02T08:44:21;24.40;99.90
26336;DHT22;14047;50.936;4.654;2022-09-02T08:46:55;24.40;99.90
26336;DHT22;14047;50.936;4.654;2022-09-02T08:49:26;24.40;99.90
26336;DHT22;14047;50.936;4.654;2022-09-02T08:51:59;24.50;99.90
26336;DHT22;14047;50.936;4.654;2022-09-02T08:54:50;24.50;99.90
26336;DHT22;14047;50.936;4.654;2022-09-02T08:57:17;24.50;99.90
26336;DHT22;14047;50.936;4.654;2022-09-02T08:59:43;24.50;99.90
26336;DHT22;14047;50.936;4.654;2022-09-02T09:05:55;24.40;99.90
26336;DHT22;14047;50.936;4.654;2022-09-02T09:08:20;24.40;99.90
26336;DHT22;14047;50.936;4.654;2022-09-02T09:10:54;24.40;99.90
26336;DHT22;14047;50.936;4.654;2022-09-02T09:21:54;24.70;99.90
26336;DHT22;14047;50.936;4.654;2022-09-02T09:24:30;24.80;99.90
26336;DHT22;14047;50.936;4.654;2022-09-02T09:26:57;24.80;99.90
26336;DHT22;14047;50.936;4.654;2022-09-02T09:29:24;24.90;99.90
26336;DHT22;14047;50.936;4.654;2022-09-02T09:31:56;24.90;99.90
26336;DHT22;14047;50.936;4.654;2022-09-02T09:34:22;25.00;99.90
26336;DHT22;14047;50.936;4.654;2022-09-02T09:36:55;25.00;99.90
26336;DHT22;14047;50.936;4.654;2022-09-02T09:39:27;25.10;99.90
26336;DHT22;14047;50.936;4.654;2022-09-02T09:42:02;25.10;99.90
26336;DHT22;14047;50.936;4.654;2022-09-02T09:44:43;25.00;99.90
26336;DHT22;14047;50.936;4.654;2022-09-02T09:47:25;25.20;99.90
26336;DHT22;14047;50.936;4.654;2022-09-02T09:50:11;25.40;99.90
26336;DHT22;14047;50.936;4.654;2022-09-02T09:52:38;25.80;99.90
26336;DHT22;14047;50.936;4.654;2022-09-02T09:55:18;26.00;99.90
26336;DHT22;14047;50.936;4.654;2022-09-02T09:57:47;26.20;99.90
26336;DHT22;14047;50.936;4.654;2022-09-02T10:00:24;26.00;99.90
26336;DHT22;14047;50.936;4.654;2022-09-02T10:02:54;26.10;99.90
26336;DHT22;14047;50.936;4.654;2022-09-02T10:05:27;26.40;99.90
26336;DHT22;14047;50.936;4.654;2022-09-02T10:08:01;26.60;99.90
26336;DHT22;14047;50.936;4.654;2022-09-02T10:10:29;26.70;99.90
26336;DHT22;14047;50.936;4.654;2022-09-02T10:13:23;26.80;99.90
26336;DHT22;14047;50.936;4.654;2022-09-02T10:16:19;26.90;99.90
26336;DHT22;14047;50.936;4.654;2022-09-02T10:18:56;27.10;99.90
26336;DHT22;14047;50.936;4.654;2022-09-02T10:24:40;27.30;99.90
26336;DHT22;14047;50.936;4.654;2022-09-02T10:27:44;27.40;99.90
26336;DHT22;14047;50.936;4.654;2022-09-02T10:30:22;27.60;99.90
26336;DHT22;14047;50.936;4.654;2022-09-02T10:35:45;27.70;99.90
26336;DHT22;14047;50.936;4.654;2022-09-02T10:38:35;27.90;99.90
26336;DHT22;14047;50.936;4.654;2022-09-02T10:44:01;28.10;99.90
26336;DHT22;14047;50.936;4.654;2022-09-02T10:46:42;28.30;99.90
26336;DHT22;14047;50.936;4.654;2022-09-02T10:49:23;28.40;99.90
26336;DHT22;14047;50.936;4.654;2022-09-02T10:51:55;28.50;99.90
26336;DHT22;14047;50.936;4.654;2022-09-02T10:57:28;28.50;99.90
26336;DHT22;14047;50.936;4.654;2022-09-02T11:02:36;28.40;99.90
26336;DHT22;14047;50.936;4.654;2022-09-02T11:07:50;28.30;99.90
26336;DHT22;14047;50.936;4.654;2022-09-02T11:10:36;28.40;99.90
26336;DHT22;14047;50.936;4.654;2022-09-02T11:13:08;28.20;99.90
26336;DHT22;14047;50.936;4.654;2022-09-02T11:15:46;28.30;99.90
26336;DHT22;14047;50.936;4.654;2022-09-02T11:18:27;28.30;99.90
26336;DHT22;14047;50.936;4.654;2022-09-02T11:21:04;28.40;99.90
26336;DHT22;14047;50.936;4.654;2022-09-02T11:23:52;28.60;99.30
26336;DHT22;14047;50.936;4.654;2022-09-02T11:26:45;28.90;98.50
26336;DHT22;14047;50.936;4.654;2022-09-02T11:29:25;29.10;97.80
26336;DHT22;14047;50.936;4.654;2022-09-02T11:32:16;29.20;96.80
26336;DHT22;14047;50.936;4.654;2022-09-02T11:34:46;29.20;96.90
26336;DHT22;14047;50.936;4.654;2022-09-02T11:37:42;29.20;96.80
26336;DHT22;14047;50.936;4.654;2022-09-02T11:40:19;28.90;97.10
26336;DHT22;14047;50.936;4.654;2022-09-02T11:53:39;28.90;95.60
26336;DHT22;14047;50.936;4.654;2022-09-02T11:56:17;29.20;95.00
26336;DHT22;14047;50.936;4.654;2022-09-02T11:58:46;29.40;94.00
26336;DHT22;14047;50.936;4.654;2022-09-02T12:01:18;29.20;95.20
26336;DHT22;14047;50.936;4.654;2022-09-02T12:03:53;29.30;94.80
26336;DHT22;14047;50.936;4.654;2022-09-02T12:06:21;29.40;93.80
26336;DHT22;14047;50.936;4.654;2022-09-02T12:11:46;29.70;93.20
26336;DHT22;14047;50.936;4.654;2022-09-02T12:17:05;30.00;92.60
26336;DHT22;14047;50.936;4.654;2022-09-02T12:19:43;30.00;92.40
26336;DHT22;14047;50.936;4.654;2022-09-02T12:24:49;29.50;92.80
26336;DHT22;14047;50.936;4.654;2022-09-02T12:29:59;29.70;91.80
26336;DHT22;14047;50.936;4.654;2022-09-02T12:35:20;30.00;90.20
26336;DHT22;14047;50.936;4.654;2022-09-02T12:38:19;30.30;90.10
26336;DHT22;14047;50.936;4.654;2022-09-02T12:40:54;30.30;89.00
26336;DHT22;14047;50.936;4.654;2022-09-02T12:46:24;30.10;90.00
26336;DHT22;14047;50.936;4.654;2022-09-02T12:49:09;30.20;89.60
26336;DHT22;14047;50.936;4.654;2022-09-02T12:51:59;30.30;86.60
26336;DHT22;14047;50.936;4.654;2022-09-02T12:54:43;30.50;86.90
26336;DHT22;14047;50.936;4.654;2022-09-02T12:57:12;30.80;87.20
26336;DHT22;14047;50.936;4.654;2022-09-02T12:59:41;31.00;86.30
26336;DHT22;14047;50.936;4.654;2022-09-02T13:34:47;32.90;74.60
26336;DHT22;14047;50.936;4.654;2022-09-02T13:40:01;32.90;77.00
26336;DHT22;14047;50.936;4.654;2022-09-02T13:42:29;32.90;76.30
26336;DHT22;14047;50.936;4.654;2022-09-02T13:45:15;33.00;73.80
26336;DHT22;14047;50.936;4.654;2022-09-02T13:47:42;33.20;73.90
26336;DHT22;14047;50.936;4.654;2022-09-02T13:50:11;33.20;74.40
26336;DHT22;14047;50.936;4.654;2022-09-02T13:52:39;33.40;73.70
26336;DHT22;14047;50.936;4.654;2022-09-02T13:55:05;33.30;73.70
26336;DHT22;14047;50.936;4.654;2022-09-02T13:57:33;33.20;73.60
26336;DHT22;14047;50.936;4.654;2022-09-02T14:00:00;33.20;74.40
26336;DHT22;14047;50.936;4.654;2022-09-02T14:02:30;33.30;74.80
26336;DHT22;14047;50.936;4.654;2022-09-02T14:05:19;32.90;75.70
26336;DHT22;14047;50.936;4.654;2022-09-02T14:07:51;32.70;76.50
26336;DHT22;14047;50.936;4.654;2022-09-02T14:10:20;32.20;75.10
26336;DHT22;14047;50.936;4.654;2022-09-02T14:12:47;32.40;73.30
26336;DHT22;14047;50.936;4.654;2022-09-02T14:15:15;32.60;71.50
26336;DHT22;14047;50.936;4.654;2022-09-02T14:17:41;32.50;72.20
26336;DHT22;14047;50.936;4.654;2022-09-02T14:20:19;32.70;71.20
26336;DHT22;14047;50.936;4.654;2022-09-02T14:22:55;32.50;73.20
26336;DHT22;14047;50.936;4.654;2022-09-02T14:25:22;31.40;76.10
26336;DHT22;14047;50.936;4.654;2022-09-02T14:27:53;31.40;75.50
26336;DHT22;14047;50.936;4.654;2022-09-02T14:30:35;31.50;75.60
26336;DHT22;14047;50.936;4.654;2022-09-02T14:36:07;31.30;76.00
26336;DHT22;14047;50.936;4.654;2022-09-02T14:38:36;31.00;74.40
26336;DHT22;14047;50.936;4.654;2022-09-02T14:44:11;30.90;75.50
26336;DHT22;14047;50.936;4.654;2022-09-02T14:46:48;31.10;75.80
26336;DHT22;14047;50.936;4.654;2022-09-02T14:49:30;31.50;74.40
26336;DHT22;14047;50.936;4.654;2022-09-02T14:51:59;31.70;73.30
26336;DHT22;14047;50.936;4.654;2022-09-02T14:54:45;32.30;72.50
26336;DHT22;14047;50.936;4.654;2022-09-02T14:57:33;33.30;70.70
26336;DHT22;14047;50.936;4.654;2022-09-02T15:00:07;34.60;67.50
26336;DHT22;14047;50.936;4.654;2022-09-02T15:02:40;35.70;65.70
26336;DHT22;14047;50.936;4.654;2022-09-02T15:05:11;36.20;65.30
26336;DHT22;14047;50.936;4.654;2022-09-02T15:07:41;36.80;63.10
26336;DHT22;14047;50.936;4.654;2022-09-02T15:10:07;37.20;60.80
26336;DHT22;14047;50.936;4.654;2022-09-02T15:12:38;38.30;59.10
26336;DHT22;14047;50.936;4.654;2022-09-02T15:15:05;39.10;56.90
26336;DHT22;14047;50.936;4.654;2022-09-02T15:17:30;39.50;55.50
26336;DHT22;14047;50.936;4.654;2022-09-02T15:19:56;39.20;54.80
26336;DHT22;14047;50.936;4.654;2022-09-02T15:22:22;38.80;55.60
26336;DHT22;14047;50.936;4.654;2022-09-02T15:24:48;38.40;56.60
26336;DHT22;14047;50.936;4.654;2022-09-02T15:27:17;37.60;57.10
26336;DHT22;14047;50.936;4.654;2022-09-02T15:29:43;36.90;58.20
26336;DHT22;14047;50.936;4.654;2022-09-02T15:32:08;35.70;59.90
26336;DHT22;14047;50.936;4.654;2022-09-02T15:34:34;34.40;62.90
26336;DHT22;14047;50.936;4.654;2022-09-02T15:37:02;34.30;62.10
26336;DHT22;14047;50.936;4.654;2022-09-02T15:39:28;34.30;62.20
26336;DHT22;14047;50.936;4.654;2022-09-02T15:41:55;34.70;62.00
26336;DHT22;14047;50.936;4.654;2022-09-02T15:44:21;35.00;61.90
26336;DHT22;14047;50.936;4.654;2022-09-02T15:46:53;34.90;62.00
26336;DHT22;14047;50.936;4.654;2022-09-02T15:49:19;34.40;61.50
26336;DHT22;14047;50.936;4.654;2022-09-02T15:51:48;33.70;62.30
26336;DHT22;14047;50.936;4.654;2022-09-02T15:54:16;33.00;64.10
26336;DHT22;14047;50.936;4.654;2022-09-02T15:56:43;32.40;65.30
26336;DHT22;14047;50.936;4.654;2022-09-02T15:59:15;31.90;66.10
26336;DHT22;14047;50.936;4.654;2022-09-02T16:01:44;31.50;66.50
26336;DHT22;14047;50.936;4.654;2022-09-02T16:04:11;31.40;66.90
26336;DHT22;14047;50.936;4.654;2022-09-02T16:06:39;31.00;68.20
26336;DHT22;14047;50.936;4.654;2022-09-02T16:09:10;30.60;69.40
26336;DHT22;14047;50.936;4.654;2022-09-02T16:11:41;30.30;69.30
26336;DHT22;14047;50.936;4.654;2022-09-02T16:14:08;30.50;68.70
26336;DHT22;14047;50.936;4.654;2022-09-02T16:16:34;30.60;68.90
26336;DHT22;14047;50.936;4.654;2022-09-02T16:19:01;30.90;68.90
26336;DHT22;14047;50.936;4.654;2022-09-02T16:21:27;31.30;67.80
26336;DHT22;14047;50.936;4.654;2022-09-02T16:23:53;31.70;67.80
26336;DHT22;14047;50.936;4.654;2022-09-02T16:26:33;31.90;66.90
26336;DHT22;14047;50.936;4.654;2022-09-02T16:29:05;31.90;66.80
26336;DHT22;14047;50.936;4.654;2022-09-02T16:31:33;31.90;66.90
26336;DHT22;14047;50.936;4.654;2022-09-02T16:34:02;31.80;68.50
26336;DHT22;14047;50.936;4.654;2022-09-02T16:36:29;31.70;68.20
26336;DHT22;14047;50.936;4.654;2022-09-02T16:38:56;31.90;68.00
26336;DHT22;14047;50.936;4.654;2022-09-02T16:41:33;32.10;68.30
26336;DHT22;14047;50.936;4.654;2022-09-02T16:44:05;32.10;67.90
26336;DHT22;14047;50.936;4.654;2022-09-02T16:46:33;32.20;68.60
26336;DHT22;14047;50.936;4.654;2022-09-02T16:48:58;32.20;68.50
26336;DHT22;14047;50.936;4.654;2022-09-02T16:51:25;31.90;69.20
26336;DHT22;14047;50.936;4.654;2022-09-02T16:53:57;31.60;69.20
26336;DHT22;14047;50.936;4.654;2022-09-02T16:56:23;31.20;70.60
26336;DHT22;14047;50.936;4.654;2022-09-02T16:58:49;30.80;70.50
26336;DHT22;14047;50.936;4.654;2022-09-02T17:01:15;30.60;71.40
26336;DHT22;14047;50.936;4.654;2022-09-02T17:03:42;30.40;72.60
26336;DHT22;14047;50.936;4.654;2022-09-02T17:06:09;30.10;73.00
26336;DHT22;14047;50.936;4.654;2022-09-02T17:08:34;30.00;73.10
26336;DHT22;14047;50.936;4.654;2022-09-02T17:11:21;29.80;73.50
26336;DHT22;14047;50.936;4.654;2022-09-02T17:14:04;29.60;74.60
26336;DHT22;14047;50.936;4.654;2022-09-02T17:16:38;29.10;74.90
26336;DHT22;14047;50.936;4.654;2022-09-02T17:19:05;28.90;75.50
26336;DHT22;14047;50.936;4.654;2022-09-02T17:21:44;28.70;76.20
26336;DHT22;14047;50.936;4.654;2022-09-02T17:24:15;28.50;77.10
26336;DHT22;14047;50.936;4.654;2022-09-02T17:26:44;28.40;77.50